createdAt,value
2023-06-17T01:02:31.382Z,15.40
2023-06-17T01:05:00.028Z,16.20
2023-06-17T01:07:36.991Z,15.27
2023-06-17T01:10:13.458Z,14.73
2023-06-17T01:12:42.649Z,15.73
2023-06-17T01:15:12.028Z,16.65
2023-06-17T01:17:39.674Z,15.48
2023-06-17T01:20:09.095Z,15.05
2023-06-17T01:22:37.711Z,15.77
2023-06-17T01:25:04.945Z,15.75
2023-06-17T01:27:35.521Z,16.45
2023-06-17T01:30:03.307Z,17.00
2023-06-17T01:32:30.314Z,15.35
2023-06-17T01:35:05.456Z,16.05
2023-06-17T01:37:50.828Z,15.13
2023-06-17T01:40:22.163Z,15.98
2023-06-17T01:42:52.904Z,15.93
2023-06-17T01:45:21.246Z,15.98
2023-06-17T01:47:48.752Z,16.75
2023-06-17T01:50:20.426Z,14.48
2023-06-17T01:52:48.125Z,15.63
2023-06-17T01:55:15.499Z,15.43
2023-06-17T01:57:42.376Z,15.25
2023-06-17T02:00:10.310Z,15.25
2023-06-17T02:02:37.455Z,15.50
2023-06-17T02:05:04.657Z,15.40
2023-06-17T02:07:31.731Z,16.00
2023-06-17T02:09:58.830Z,16.17
2023-06-17T02:12:26.281Z,15.63
2023-06-17T02:14:53.193Z,17.20
2023-06-17T02:17:20.379Z,16.42
2023-06-17T02:19:47.297Z,16.35
2023-06-17T02:22:14.148Z,16.98
2023-06-17T02:24:41.465Z,17.05
2023-06-17T02:27:08.320Z,16.17
2023-06-17T02:29:48.611Z,15.70
2023-06-17T02:32:15.675Z,15.30
2023-06-17T02:34:43.788Z,15.25
2023-06-17T02:37:11.500Z,15.13
2023-06-17T02:39:38.421Z,13.43
2023-06-17T02:42:05.867Z,13.50
2023-06-17T02:44:32.785Z,14.20
2023-06-17T02:46:59.745Z,13.88
2023-06-17T02:49:26.816Z,13.95
2023-06-17T02:51:53.833Z,13.20
2023-06-17T02:54:20.964Z,11.50
2023-06-17T02:56:47.818Z,12.35
2023-06-17T03:13:05.124Z,11.43
2023-06-17T03:15:32.144Z,10.88
2023-06-17T03:17:59.075Z,11.68
2023-06-17T03:20:29.981Z,12.13
2023-06-17T03:22:57.296Z,12.80
2023-06-17T03:25:24.492Z,11.73
2023-06-17T03:27:52.052Z,11.02
2023-06-17T03:30:19.179Z,11.57
2023-06-17T03:32:46.208Z,11.25
2023-06-17T03:35:13.336Z,11.02
2023-06-17T03:37:40.260Z,10.60
2023-06-17T03:40:10.491Z,10.50
2023-06-17T03:42:37.653Z,11.00
2023-06-17T03:45:04.713Z,10.13
2023-06-17T03:47:31.574Z,11.13
2023-06-17T03:49:58.533Z,10.02
2023-06-17T03:52:25.944Z,10.95
2023-06-17T03:54:54.812Z,12.43
2023-06-17T03:57:21.675Z,10.18
2023-06-17T03:59:48.507Z,12.82
2023-06-17T04:04:36.212Z,11.70
2023-06-17T04:07:04.048Z,11.82
2023-06-17T04:09:31.556Z,11.98
2023-06-17T04:11:58.580Z,11.77
2023-06-17T04:14:25.476Z,13.23
2023-06-17T04:16:52.354Z,11.88
2023-06-17T04:19:19.240Z,11.13
2023-06-17T04:21:46.255Z,11.75
2023-06-17T04:24:13.403Z,12.48
2023-06-17T04:26:41.340Z,11.98
2023-06-17T04:29:09.899Z,12.00
2023-06-17T04:31:41.956Z,11.40
2023-06-17T04:34:08.912Z,11.98
2023-06-17T04:36:35.786Z,12.63
2023-06-17T04:39:02.860Z,12.77
2023-06-17T04:41:29.800Z,12.05
2023-06-17T04:43:56.640Z,11.85
2023-06-17T04:46:23.573Z,12.23
2023-06-17T04:48:51.900Z,12.43
2023-06-17T04:51:19.234Z,12.52
2023-06-17T04:53:46.228Z,12.52
2023-06-17T04:56:13.804Z,13.38
2023-06-17T04:58:40.729Z,12.98
2023-06-17T05:01:07.665Z,12.88
2023-06-17T05:03:34.654Z,12.57
2023-06-17T05:06:01.550Z,13.20
2023-06-17T05:08:28.477Z,13.20
2023-06-17T05:10:55.390Z,12.65
2023-06-17T05:13:22.220Z,14.07
2023-06-17T05:15:49.046Z,13.93
2023-06-17T05:18:16.405Z,15.00
2023-06-17T05:20:43.288Z,14.63
2023-06-17T05:23:10.165Z,21.90
2023-06-17T05:25:37.049Z,15.75
2023-06-17T05:28:06.719Z,14.25
2023-06-17T05:30:33.904Z,14.27
2023-06-17T05:33:00.830Z,14.82
2023-06-17T05:35:28.814Z,15.75
2023-06-17T05:37:55.776Z,14.27
2023-06-17T05:40:22.968Z,14.25
2023-06-17T05:42:49.982Z,14.02
2023-06-17T05:45:17.476Z,13.48
2023-06-17T05:47:44.412Z,15.73
2023-06-17T05:50:11.790Z,14.75
2023-06-17T05:52:38.821Z,14.43
2023-06-17T05:55:06.401Z,13.45
2023-06-17T05:57:33.355Z,14.40
2023-06-17T06:00:00.258Z,13.88
2023-06-17T06:02:27.216Z,14.00
2023-06-17T06:04:54.108Z,13.13
2023-06-17T06:07:21.016Z,14.60
2023-06-17T06:09:48.371Z,13.48
2023-06-17T06:12:15.195Z,13.80
2023-06-17T06:14:42.029Z,13.75
2023-06-17T06:17:08.905Z,12.52
2023-06-17T06:19:35.757Z,13.55
2023-06-17T06:22:02.583Z,12.65
2023-06-17T06:24:29.513Z,11.88
2023-06-17T06:26:56.530Z,10.80
2023-06-17T06:29:23.425Z,10.15
2023-06-17T06:31:50.269Z,10.68
2023-06-17T06:34:17.165Z,9.68
2023-06-17T06:36:44.122Z,10.30
2023-06-17T06:39:13.673Z,10.57
2023-06-17T06:41:42.177Z,11.40
2023-06-17T06:44:09.081Z,9.77
2023-06-17T06:46:36.074Z,9.38
2023-06-17T06:49:03.228Z,9.35
2023-06-17T06:51:30.069Z,8.52
2023-06-17T06:53:57.085Z,7.85
2023-06-17T06:56:24.038Z,8.35
2023-06-17T06:58:51.174Z,9.18
2023-06-17T07:01:18.082Z,9.23
2023-06-17T07:03:44.936Z,8.45
2023-06-17T07:06:11.757Z,8.30
2023-06-17T07:08:38.658Z,8.77
2023-06-17T07:11:05.474Z,8.45
2023-06-17T07:13:33.177Z,7.93
2023-06-17T07:16:00.126Z,9.55
2023-06-17T07:18:26.984Z,8.32
2023-06-17T07:20:53.873Z,8.70
2023-06-17T07:23:20.812Z,8.02
2023-06-17T07:25:47.657Z,8.52
2023-06-17T07:28:15.101Z,8.82
2023-06-17T07:30:42.172Z,7.72
2023-06-17T07:33:09.522Z,8.20
2023-06-17T07:35:36.381Z,7.53
2023-06-17T07:38:03.421Z,6.88
2023-06-17T07:40:30.266Z,6.45
2023-06-17T07:42:57.097Z,7.20
2023-06-17T07:45:24.018Z,7.78
2023-06-17T07:47:51.115Z,7.85
2023-06-17T07:50:18.168Z,8.57
2023-06-17T07:52:45.316Z,8.63
2023-06-17T07:55:12.851Z,8.25
2023-06-17T07:57:39.766Z,7.97
2023-06-17T08:00:11.578Z,8.38
2023-06-17T08:02:38.586Z,8.60
2023-06-17T08:05:06.216Z,8.48
2023-06-17T08:07:33.130Z,7.95
2023-06-17T08:10:00.062Z,8.52
2023-06-17T08:12:27.169Z,8.75
2023-06-17T08:14:54.384Z,8.55
2023-06-17T08:17:21.506Z,8.85
2023-06-17T08:19:48.371Z,8.73
2023-06-17T08:22:15.372Z,8.90
2023-06-17T08:24:42.493Z,7.93
2023-06-17T08:27:11.260Z,8.70
2023-06-17T08:29:38.269Z,9.02
2023-06-17T08:32:07.573Z,8.57
2023-06-17T08:34:36.368Z,11.27
2023-06-17T08:40:52.921Z,9.20
2023-06-17T08:43:58.446Z,10.05
2023-06-17T08:46:32.460Z,9.45
2023-06-17T08:49:11.625Z,10.90
2023-06-17T08:51:54.108Z,9.15
2023-06-17T08:54:25.690Z,8.75
2023-06-17T08:57:05.585Z,9.68
2023-06-17T08:59:35.483Z,8.52
2023-06-17T09:02:05.051Z,9.00
2023-06-17T09:04:32.602Z,14.48
2023-06-17T09:07:01.587Z,13.57
2023-06-17T09:09:28.620Z,10.00
2023-06-17T09:12:08.235Z,10.25
2023-06-17T09:14:35.641Z,12.10
2023-06-17T09:17:04.386Z,9.45
2023-06-17T09:19:35.073Z,10.07
2023-06-17T09:22:08.264Z,8.43
2023-06-17T09:24:35.317Z,7.80
2023-06-17T09:27:03.502Z,7.22
2023-06-17T09:29:37.760Z,8.05
2023-06-17T09:32:42.775Z,8.32
2023-06-17T09:36:05.694Z,8.50
2023-06-17T09:42:14.172Z,8.55
2023-06-17T09:48:26.098Z,8.70
2023-06-17T09:51:56.021Z,10.80
2023-06-17T09:54:52.082Z,9.32
2023-06-17T09:58:26.936Z,9.45
2023-06-17T10:00:54.396Z,9.80
2023-06-17T10:03:21.607Z,9.10
2023-06-17T10:06:03.200Z,10.20
2023-06-17T10:08:32.248Z,10.00
2023-06-17T10:11:01.413Z,9.10
2023-06-17T10:13:33.751Z,8.95
2023-06-17T10:16:03.500Z,9.85
2023-06-17T10:18:35.101Z,9.20
2023-06-17T10:21:03.496Z,9.40
2023-06-17T10:23:32.135Z,9.95
2023-06-17T10:25:59.183Z,9.55
2023-06-17T10:28:26.041Z,9.52
2023-06-17T10:30:53.316Z,9.82
2023-06-17T10:33:31.336Z,8.07
2023-06-17T10:36:08.841Z,8.27
2023-06-17T10:38:36.048Z,8.98
2023-06-17T10:41:03.048Z,8.38
2023-06-17T10:43:37.846Z,7.88
2023-06-17T10:46:04.979Z,8.20
2023-06-17T10:48:34.131Z,7.72
2023-06-17T10:51:10.169Z,8.13
2023-06-17T10:53:38.024Z,7.15
2023-06-17T10:56:08.202Z,7.82
2023-06-17T10:58:55.587Z,7.10
2023-06-17T11:01:22.525Z,7.18
2023-06-17T11:03:49.440Z,6.90
2023-06-17T11:06:16.413Z,7.25
2023-06-17T11:08:43.256Z,7.80
2023-06-17T11:11:12.581Z,8.15
2023-06-17T11:13:41.397Z,6.90
2023-06-17T11:16:08.803Z,7.68
2023-06-17T11:18:37.262Z,6.85
2023-06-17T11:21:11.257Z,8.05
2023-06-17T11:23:41.424Z,8.55
2023-06-17T11:26:09.790Z,7.22
2023-06-17T11:28:38.339Z,8.70
2023-06-17T11:31:06.814Z,8.18
2023-06-17T11:33:37.827Z,9.80
2023-06-17T11:36:11.255Z,13.90
2023-06-17T11:38:39.305Z,10.85
2023-06-17T11:41:06.504Z,8.98
2023-06-17T11:43:33.931Z,9.30
2023-06-17T11:46:01.256Z,9.55
2023-06-17T11:48:29.851Z,10.13
2023-06-17T11:51:00.629Z,10.02
2023-06-17T11:53:40.734Z,9.30
2023-06-17T11:56:09.345Z,8.90
2023-06-17T11:58:40.486Z,8.32
2023-06-17T12:15:10.947Z,8.53
2023-06-17T12:17:50.144Z,10.18
2023-06-17T12:20:21.842Z,9.63
2023-06-17T12:22:51.122Z,8.98
2023-06-17T12:25:19.534Z,9.23
2023-06-17T12:27:51.141Z,9.32
2023-06-17T12:30:18.792Z,12.30
2023-06-17T12:32:45.941Z,9.70
2023-06-17T12:35:13.587Z,9.23
2023-06-17T12:37:42.699Z,9.43
2023-06-17T12:40:10.790Z,10.25
2023-06-17T12:42:38.181Z,10.10
2023-06-17T12:45:07.046Z,10.30
2023-06-17T12:47:33.953Z,9.82
2023-06-17T12:50:01.179Z,9.13
2023-06-17T12:52:28.764Z,9.27
2023-06-17T12:55:02.563Z,10.07
2023-06-17T12:57:30.656Z,9.63
2023-06-17T12:59:57.537Z,9.10
2023-06-17T13:02:24.475Z,9.02
2023-06-17T13:04:51.468Z,8.82
2023-06-17T13:07:18.770Z,7.90
2023-06-17T13:09:45.722Z,7.03
2023-06-17T13:12:12.647Z,8.27
2023-06-17T13:14:40.917Z,7.72
2023-06-17T13:17:07.877Z,9.73
2023-06-17T13:19:35.112Z,8.07
2023-06-17T13:22:01.983Z,6.65
2023-06-17T13:24:29.072Z,7.72
2023-06-17T13:26:56.128Z,7.63
2023-06-17T13:29:24.433Z,7.32
2023-06-17T13:31:51.495Z,6.60
2023-06-17T13:34:19.427Z,6.40
2023-06-17T13:36:47.688Z,6.20
2023-06-17T13:39:15.242Z,6.28
2023-06-17T13:41:42.667Z,6.47
2023-06-17T13:44:10.045Z,5.70
2023-06-17T13:46:37.318Z,5.13
2023-06-17T13:49:04.700Z,5.53
2023-06-17T13:51:32.793Z,5.63
2023-06-17T13:54:03.340Z,5.97
2023-06-17T13:56:30.633Z,6.43
2023-06-17T13:58:57.561Z,6.65
2023-06-17T14:01:25.106Z,6.25
2023-06-17T14:03:53.291Z,8.15
2023-06-17T14:06:21.284Z,8.65
2023-06-17T14:08:48.525Z,8.40
2023-06-17T14:11:15.544Z,8.25
2023-06-17T14:13:44.180Z,8.65
2023-06-17T14:16:11.785Z,8.63
2023-06-17T14:18:38.805Z,8.73
2023-06-17T14:21:05.773Z,9.00
2023-06-17T14:23:32.642Z,8.93
2023-06-17T14:25:59.587Z,9.32
2023-06-17T14:28:26.446Z,10.00
2023-06-17T14:30:53.696Z,9.77
2023-06-17T14:33:20.668Z,10.13
2023-06-17T14:35:47.511Z,10.38
2023-06-17T14:38:14.538Z,10.27
2023-06-17T14:40:41.492Z,10.95
2023-06-17T14:43:08.847Z,11.48
2023-06-17T14:45:36.077Z,10.38
2023-06-17T14:48:04.027Z,12.75
2023-06-17T14:50:31.204Z,10.43
2023-06-17T14:52:58.218Z,10.93
2023-06-17T14:55:25.100Z,11.65
2023-06-17T14:57:52.420Z,11.05
2023-06-17T15:00:21.104Z,11.70
2023-06-17T15:02:50.259Z,11.43
2023-06-17T15:05:17.924Z,11.25
2023-06-17T15:07:45.247Z,10.73
2023-06-17T15:10:12.446Z,9.73
2023-06-17T15:12:43.396Z,10.00
2023-06-17T15:15:12.310Z,9.73
2023-06-17T15:17:39.813Z,10.23
2023-06-17T15:20:07.858Z,10.68
2023-06-17T15:22:35.016Z,10.57
2023-06-17T15:25:02.049Z,9.85
2023-06-17T15:27:28.906Z,10.50
2023-06-17T15:29:55.769Z,10.98
2023-06-17T15:32:23.484Z,11.07
2023-06-17T15:34:50.721Z,11.98
2023-06-17T15:37:17.679Z,10.95
2023-06-17T15:39:45.359Z,11.48
2023-06-17T15:42:13.086Z,11.52
2023-06-17T15:44:39.950Z,10.75
2023-06-17T15:47:07.077Z,9.88
2023-06-17T15:49:33.992Z,10.07
2023-06-17T15:52:01.084Z,9.48
2023-06-17T15:54:27.988Z,9.63
2023-06-17T15:56:54.912Z,8.68
2023-06-17T15:59:21.858Z,9.63
2023-06-17T16:01:48.888Z,9.00
2023-06-17T16:04:45.878Z,8.48
2023-06-17T16:07:14.451Z,8.60
2023-06-17T16:09:49.084Z,8.45
2023-06-17T16:12:17.908Z,8.40
2023-06-17T16:14:45.821Z,8.30
2023-06-17T16:17:13.001Z,7.97
2023-06-17T16:19:40.273Z,8.52
2023-06-17T16:22:13.438Z,8.23
2023-06-17T16:24:42.782Z,8.60
2023-06-17T16:27:11.990Z,8.50
2023-06-17T16:29:39.392Z,8.38
2023-06-17T16:32:06.788Z,9.98
2023-06-17T16:34:33.739Z,8.02
2023-06-17T16:37:02.018Z,7.50
2023-06-17T16:39:29.027Z,8.40
2023-06-17T16:41:56.289Z,8.90
2023-06-17T16:44:23.195Z,7.95
2023-06-17T16:46:50.207Z,7.68
2023-06-17T16:49:17.134Z,7.40
2023-06-17T16:51:45.747Z,7.88
2023-06-17T16:54:12.635Z,8.43
2023-06-17T16:56:39.571Z,9.35
2023-06-17T16:59:06.614Z,11.25
2023-06-17T17:01:33.684Z,13.38
2023-06-17T17:04:01.875Z,12.80
2023-06-17T17:43:09.933Z,15.30
2023-06-17T17:45:45.181Z,15.98
2023-06-17T18:04:00.668Z,17.23
2023-06-17T18:06:30.778Z,17.05
2023-06-17T18:16:30.062Z,14.90
2023-06-17T18:22:43.842Z,13.88
2023-06-17T18:25:11.146Z,13.07
2023-06-17T18:27:39.193Z,13.05
2023-06-17T18:30:12.790Z,14.73
2023-06-17T18:32:59.732Z,13.80
2023-06-17T18:35:26.791Z,14.75
2023-06-17T18:37:53.792Z,14.65
2023-06-17T18:40:21.159Z,16.25
2023-06-17T18:42:48.561Z,16.77
2023-06-17T18:45:15.554Z,14.27
2023-06-17T18:47:42.768Z,13.93
2023-06-17T18:50:09.932Z,13.52
2023-06-17T18:52:36.887Z,13.98
2023-06-17T18:55:09.935Z,14.25
2023-06-17T18:57:44.532Z,13.75
2023-06-17T19:00:37.082Z,13.77
2023-06-17T19:03:12.231Z,14.77
2023-06-17T19:05:48.407Z,14.25
2023-06-17T19:08:17.434Z,15.57
2023-06-17T19:14:24.949Z,15.63
2023-06-17T19:29:07.042Z,16.58
2023-06-17T19:31:46.397Z,16.35
2023-06-17T19:34:48.502Z,17.05
2023-06-17T22:08:53.551Z,19.77
2023-06-17T22:12:10.921Z,23.08
